CheckWX is a tool to help pilots better visualize weather data.  It is not intended as a substitute for an official pre-flight weather briefing.

14:48:22 UTC

UBBB TAF
Heydar Aliyev International Airport
Baku, Azerbaijan
TAF UBBB 231104Z 2312/2412 18020G30KT 8000 SCT015 BKN080 TX11/2312Z TN06/2402Z TEMPO 2312/2322 SCT007 BECMG 2322/2324 26008KT SCT007 TEMPO 2322/2404 VRB04KT 3000 BR BKN003 BECMG 2404/2406 34018G28KT SCT015 OVC030 TEMPO 2406/2412 35024G34KT FEW040CB

Mar-23@
12:00 UTC

Mar-23 @ 12:00 UTC

Mar-23@
22:00 UTC

Mar-23 @ 22:00 UTC

TAF UBBB 231104Z 2312/2412 18020G30KT 8000 SCT015 BKN080 TX11/2312Z TN06/2402Z
Wind
  • 180° at 20 KTS
  • {Gusting to 30 KTS
Cloud Levels
  • Scattered at 1,500' AGL
  • Broken at 8,000' AGL

Mar-23@
12:00 UTC

Mar-23 @ 12:00 UTC

Mar-23@
22:00 UTC

Mar-23 @ 22:00 UTC

TEMPO 2312/2322 SCT007

Temporary

Temporary Changes expected for less than half the time period

Cloud Levels
  • Scattered at 700' AGL

Mar-23@
22:00 UTC

Mar-23 @ 22:00 UTC

Mar-24@
04:00 UTC

Mar-24 @ 04:00 UTC

BECMG 2322/2324 26008KT SCT007

Becoming

Becoming Conditions expected by Sun, Mar 24, 2019 @ 00:00 UTC

Wind
  • 260° at 8 KTS
Cloud Levels
  • Scattered at 700' AGL

Mar-23@
22:00 UTC

Mar-23 @ 22:00 UTC

Mar-24@
04:00 UTC

Mar-24 @ 04:00 UTC

TEMPO 2322/2404 VRB04KT 3000 BR BKN003

Temporary

Temporary Changes expected for less than half the time period

Wind
  • Variable at 4 KTS
Conditions
Mist
Cloud Levels
  • Broken at 300' AGL

Mar-24@
04:00 UTC

Mar-24 @ 04:00 UTC

Mar-24@
12:00 UTC

Mar-24 @ 12:00 UTC

BECMG 2404/2406 34018G28KT SCT015 OVC030

Becoming

Becoming Conditions expected by Sun, Mar 24, 2019 @ 06:00 UTC

Wind
  • 340° at 18 KTS
  • {Gusting to 28 KTS
Cloud Levels
  • Scattered at 1,500' AGL
  • Overcast at 3,000' AGL

Mar-24@
06:00 UTC

Mar-24 @ 06:00 UTC

Mar-24@
12:00 UTC

Mar-24 @ 12:00 UTC

TEMPO 2406/2412 35024G34KT FEW040CB

Temporary

Temporary Changes expected for less than half the time period

Wind
  • 350° at 24 KTS
  • {Gusting to 34 KTS
Cloud Levels
  • Few at 4,000' AGL